sim
Sign-in with your pilot id or email,
or register
Callsign
Passwort

Schedule Details

Flight Number: RYR3601 (1)
Departure: Riga International Airport (EVRA) at 18:25
Arrival: Bremen Airport (EDDW) at 20:20
Route: Ryanair Passenger Schedule. Enter filed route here before submitting Pirep.

Weather Information
Getting current METAR information for EVRA 171650Z 34006KT CAVOK 20/14 Q1017 NOSIG
Getting current METAR information for EDDW 171650Z 13009KT 100V160 CAVOK 26/12 Q1018 NOSIG

Schedule Frequency

Route Map